This is the latest recevied weather packets stored in our database for station/object CA4LJZ-10. If no packets are shown the sender has not sent any weather packets the latest 10 day(s).
| Time | Temp. | Humidity | Pressure | Rain* | Wind** | Luminosity | Snow |
|---|---|---|---|---|---|---|---|
| 1778098565 | 14.44° C | 81% | 955.1 hPa | - | - | - | - |
| 1778097665 | 14.44° C | 81% | 955.1 hPa | - | - | - | - |
| 1778096765 | 14.44° C | 81% | 955.1 hPa | - | - | - | - |
| 1778095865 | 14.44° C | 81% | 955.1 hPa | - | - | - | - |
| 1778094964 | 14.44° C | 81% | 955.1 hPa | - | - | - | - |
| 1778094064 | 14.44° C | 81% | 955.1 hPa | - | - | - | - |
| 1778093164 | 14.44° C | 81% | 955.1 hPa | - | - | - | - |
| 1778092264 | 14.44° C | 81% | 955.1 hPa | - | - | - | - |
| 1778091363 | 14.44° C | 81% | 955.1 hPa | - | - | - | - |
| 1778090463 | 14.44° C | 81% | 955.1 hPa | - | - | - | - |
| 1778089563 | 14.44° C | 81% | 955.1 hPa | - | - | - | - |
| 1778088663 | 14.44° C | 81% | 955.1 hPa | - | - | - | - |
| 1778087762 | 14.44° C | 81% | 955.1 hPa | - | - | - | - |
| 1778086862 | 14.44° C | 80% | 954.9 hPa | - | - | - | - |
| 1778085961 | 14.44° C | 78% | 954.7 hPa | - | - | - | - |
| 1778085060 | 15° C | 76% | 954.5 hPa | - | - | - | - |
| 1778084159 | 15.56° C | 72% | 954.6 hPa | - | - | - | - |
| 1778083258 | 16.11° C | 71% | 954.3 hPa | - | - | - | - |
| 1778082357 | 16.67° C | 66% | 954.4 hPa | - | - | - | - |
| 1778081456 | 16.11° C | 69% | 954.8 hPa | - | - | - | - |
| 1778080555 | 16.11° C | 71% | 954.3 hPa | - | - | - | - |
| 1778079655 | 16.67° C | 65% | 954.4 hPa | - | - | - | - |
| 1778078789 | 18.33° C | 52% | 953.7 hPa | - | - | - | - |
| 1778078754 | 18.33° C | 52% | 953.7 hPa | - | - | - | - |
| 1778077852 | 19.44° C | 49% | 952.9 hPa | - | - | - | - |
* Rain since midnight (hover to see other rain measurements)
** Current wind speed in m/s (hover to see current wind gust speed)